sensor_id;sensor_type;location;lat;lon;timestamp;P1;durP1;ratioP1;P2;durP2;ratioP2
31978;SDS011;18502;43.574;1.276;2024-02-28T00:00:27;12.40;;;3.72;;
31978;SDS011;18502;43.574;1.276;2024-02-28T00:02:52;12.45;;;2.70;;
31978;SDS011;18502;43.574;1.276;2024-02-28T00:05:18;9.52;;;3.13;;
31978;SDS011;18502;43.574;1.276;2024-02-28T00:07:43;6.80;;;2.75;;
31978;SDS011;18502;43.574;1.276;2024-02-28T00:10:10;10.02;;;3.28;;
31978;SDS011;18502;43.574;1.276;2024-02-28T00:12:36;13.65;;;3.10;;
31978;SDS011;18502;43.574;1.276;2024-02-28T00:15:04;11.13;;;3.03;;
31978;SDS011;18502;43.574;1.276;2024-02-28T00:17:30;12.50;;;3.40;;
31978;SDS011;18502;43.574;1.276;2024-02-28T00:19:56;9.43;;;2.78;;
31978;SDS011;18502;43.574;1.276;2024-02-28T00:22:21;9.45;;;2.60;;
31978;SDS011;18502;43.574;1.276;2024-02-28T00:24:47;9.70;;;3.05;;
31978;SDS011;18502;43.574;1.276;2024-02-28T00:27:13;10.48;;;2.83;;
31978;SDS011;18502;43.574;1.276;2024-02-28T00:29:39;7.10;;;1.92;;
31978;SDS011;18502;43.574;1.276;2024-02-28T00:32:04;12.05;;;2.90;;
31978;SDS011;18502;43.574;1.276;2024-02-28T00:34:30;8.73;;;2.83;;
31978;SDS011;18502;43.574;1.276;2024-02-28T00:36:56;9.65;;;2.53;;
31978;SDS011;18502;43.574;1.276;2024-02-28T00:39:22;10.75;;;3.10;;
31978;SDS011;18502;43.574;1.276;2024-02-28T00:41:48;10.80;;;2.65;;
31978;SDS011;18502;43.574;1.276;2024-02-28T00:44:13;5.57;;;2.22;;
31978;SDS011;18502;43.574;1.276;2024-02-28T00:46:39;9.45;;;2.70;;
31978;SDS011;18502;43.574;1.276;2024-02-28T00:49:05;8.60;;;2.83;;
31978;SDS011;18502;43.574;1.276;2024-02-28T00:51:30;7.95;;;3.03;;
31978;SDS011;18502;43.574;1.276;2024-02-28T00:53:56;6.32;;;2.72;;
31978;SDS011;18502;43.574;1.276;2024-02-28T00:56:22;15.55;;;3.78;;
31978;SDS011;18502;43.574;1.276;2024-02-28T00:58:49;15.13;;;3.85;;
31978;SDS011;18502;43.574;1.276;2024-02-28T01:01:15;19.05;;;4.03;;
31978;SDS011;18502;43.574;1.276;2024-02-28T01:03:40;11.73;;;4.30;;
31978;SDS011;18502;43.574;1.276;2024-02-28T01:06:06;11.18;;;3.85;;
31978;SDS011;18502;43.574;1.276;2024-02-28T01:08:31;16.48;;;3.90;;
31978;SDS011;18502;43.574;1.276;2024-02-28T01:10:57;9.35;;;3.65;;
31978;SDS011;18502;43.574;1.276;2024-02-28T01:13:24;9.68;;;3.55;;
31978;SDS011;18502;43.574;1.276;2024-02-28T01:15:49;9.88;;;3.60;;
31978;SDS011;18502;43.574;1.276;2024-02-28T01:18:15;9.90;;;2.92;;
31978;SDS011;18502;43.574;1.276;2024-02-28T01:20:41;11.95;;;3.40;;
31978;SDS011;18502;43.574;1.276;2024-02-28T01:23:06;13.52;;;3.30;;
31978;SDS011;18502;43.574;1.276;2024-02-28T01:25:32;7.50;;;2.60;;
31978;SDS011;18502;43.574;1.276;2024-02-28T01:27:58;9.38;;;2.60;;
31978;SDS011;18502;43.574;1.276;2024-02-28T01:30:24;10.88;;;3.13;;
31978;SDS011;18502;43.574;1.276;2024-02-28T01:32:50;9.55;;;2.92;;
31978;SDS011;18502;43.574;1.276;2024-02-28T01:35:15;14.68;;;3.70;;
31978;SDS011;18502;43.574;1.276;2024-02-28T01:37:41;10.73;;;3.53;;
31978;SDS011;18502;43.574;1.276;2024-02-28T01:40:07;8.57;;;2.60;;
31978;SDS011;18502;43.574;1.276;2024-02-28T01:42:33;10.73;;;3.08;;
31978;SDS011;18502;43.574;1.276;2024-02-28T01:44:59;5.72;;;2.10;;
31978;SDS011;18502;43.574;1.276;2024-02-28T01:47:24;8.50;;;2.75;;
31978;SDS011;18502;43.574;1.276;2024-02-28T01:49:50;10.57;;;2.70;;
31978;SDS011;18502;43.574;1.276;2024-02-28T01:52:18;4.40;;;2.03;;
31978;SDS011;18502;43.574;1.276;2024-02-28T01:54:44;15.75;;;2.55;;
31978;SDS011;18502;43.574;1.276;2024-02-28T01:57:09;7.65;;;2.40;;
31978;SDS011;18502;43.574;1.276;2024-02-28T01:59:35;10.98;;;2.15;;
31978;SDS011;18502;43.574;1.276;2024-02-28T02:02:02;7.88;;;1.90;;
31978;SDS011;18502;43.574;1.276;2024-02-28T02:04:28;6.15;;;1.80;;
31978;SDS011;18502;43.574;1.276;2024-02-28T02:06:54;9.90;;;2.17;;
31978;SDS011;18502;43.574;1.276;2024-02-28T02:09:23;8.52;;;1.80;;
31978;SDS011;18502;43.574;1.276;2024-02-28T02:11:49;5.93;;;2.00;;
31978;SDS011;18502;43.574;1.276;2024-02-28T02:14:15;13.05;;;2.40;;
31978;SDS011;18502;43.574;1.276;2024-02-28T02:16:41;10.60;;;2.65;;
31978;SDS011;18502;43.574;1.276;2024-02-28T02:19:07;6.25;;;2.03;;
31978;SDS011;18502;43.574;1.276;2024-02-28T02:21:39;12.18;;;2.75;;
31978;SDS011;18502;43.574;1.276;2024-02-28T02:24:09;8.30;;;1.80;;
31978;SDS011;18502;43.574;1.276;2024-02-28T02:26:34;7.57;;;2.10;;
31978;SDS011;18502;43.574;1.276;2024-02-28T02:29:00;6.88;;;1.60;;
31978;SDS011;18502;43.574;1.276;2024-02-28T02:31:25;7.38;;;2.45;;
31978;SDS011;18502;43.574;1.276;2024-02-28T02:33:51;9.85;;;2.50;;
31978;SDS011;18502;43.574;1.276;2024-02-28T02:36:17;8.20;;;2.33;;
31978;SDS011;18502;43.574;1.276;2024-02-28T02:38:42;8.85;;;2.13;;
31978;SDS011;18502;43.574;1.276;2024-02-28T02:41:08;5.43;;;1.92;;
31978;SDS011;18502;43.574;1.276;2024-02-28T02:43:34;3.75;;;1.90;;
31978;SDS011;18502;43.574;1.276;2024-02-28T02:45:59;9.85;;;2.50;;
31978;SDS011;18502;43.574;1.276;2024-02-28T02:48:25;10.68;;;2.40;;
31978;SDS011;18502;43.574;1.276;2024-02-28T02:50:51;10.18;;;2.35;;
31978;SDS011;18502;43.574;1.276;2024-02-28T02:53:17;6.45;;;1.80;;
31978;SDS011;18502;43.574;1.276;2024-02-28T02:55:42;9.27;;;2.72;;
31978;SDS011;18502;43.574;1.276;2024-02-28T02:58:08;7.00;;;1.70;;
31978;SDS011;18502;43.574;1.276;2024-02-28T03:00:33;5.18;;;1.77;;
31978;SDS011;18502;43.574;1.276;2024-02-28T03:02:59;4.63;;;1.88;;
31978;SDS011;18502;43.574;1.276;2024-02-28T03:05:25;6.13;;;2.13;;
31978;SDS011;18502;43.574;1.276;2024-02-28T03:07:50;15.38;;;2.53;;
31978;SDS011;18502;43.574;1.276;2024-02-28T03:10:16;6.80;;;2.00;;
31978;SDS011;18502;43.574;1.276;2024-02-28T03:12:41;9.70;;;3.78;;
31978;SDS011;18502;43.574;1.276;2024-02-28T03:15:07;4.72;;;2.38;;
31978;SDS011;18502;43.574;1.276;2024-02-28T03:17:33;5.85;;;1.80;;
31978;SDS011;18502;43.574;1.276;2024-02-28T03:19:59;8.02;;;2.63;;
31978;SDS011;18502;43.574;1.276;2024-02-28T03:22:24;7.22;;;2.03;;
31978;SDS011;18502;43.574;1.276;2024-02-28T03:24:50;3.00;;;1.38;;
31978;SDS011;18502;43.574;1.276;2024-02-28T03:27:16;9.30;;;1.88;;
31978;SDS011;18502;43.574;1.276;2024-02-28T03:29:41;7.07;;;1.63;;
31978;SDS011;18502;43.574;1.276;2024-02-28T03:32:07;6.45;;;1.45;;
31978;SDS011;18502;43.574;1.276;2024-02-28T03:34:33;12.20;;;2.95;;
31978;SDS011;18502;43.574;1.276;2024-02-28T03:36:58;5.63;;;1.63;;
31978;SDS011;18502;43.574;1.276;2024-02-28T03:39:24;7.25;;;1.40;;
31978;SDS011;18502;43.574;1.276;2024-02-28T03:41:50;7.90;;;2.20;;
31978;SDS011;18502;43.574;1.276;2024-02-28T03:44:15;6.72;;;2.08;;
31978;SDS011;18502;43.574;1.276;2024-02-28T03:46:41;8.52;;;1.67;;
31978;SDS011;18502;43.574;1.276;2024-02-28T03:49:07;11.02;;;2.03;;
31978;SDS011;18502;43.574;1.276;2024-02-28T03:51:38;9.75;;;2.00;;
31978;SDS011;18502;43.574;1.276;2024-02-28T03:54:05;6.55;;;1.42;;
31978;SDS011;18502;43.574;1.276;2024-02-28T03:56:30;7.32;;;2.15;;
31978;SDS011;18502;43.574;1.276;2024-02-28T03:58:56;10.55;;;1.73;;
31978;SDS011;18502;43.574;1.276;2024-02-28T04:01:22;5.35;;;1.35;;
31978;SDS011;18502;43.574;1.276;2024-02-28T04:03:47;9.40;;;1.58;;
31978;SDS011;18502;43.574;1.276;2024-02-28T04:06:13;9.50;;;1.95;;
31978;SDS011;18502;43.574;1.276;2024-02-28T04:08:40;6.80;;;1.98;;
31978;SDS011;18502;43.574;1.276;2024-02-28T04:11:06;7.88;;;1.30;;
31978;SDS011;18502;43.574;1.276;2024-02-28T04:13:32;6.72;;;1.98;;
31978;SDS011;18502;43.574;1.276;2024-02-28T04:15:58;4.05;;;1.45;;
31978;SDS011;18502;43.574;1.276;2024-02-28T04:18:23;4.78;;;1.73;;
31978;SDS011;18502;43.574;1.276;2024-02-28T04:20:49;6.68;;;1.83;;
31978;SDS011;18502;43.574;1.276;2024-02-28T04:23:14;5.65;;;1.55;;
31978;SDS011;18502;43.574;1.276;2024-02-28T04:25:41;10.48;;;1.88;;
31978;SDS011;18502;43.574;1.276;2024-02-28T04:28:07;7.70;;;3.15;;
31978;SDS011;18502;43.574;1.276;2024-02-28T04:30:33;2.92;;;1.25;;
31978;SDS011;18502;43.574;1.276;2024-02-28T04:32:59;8.13;;;2.22;;
31978;SDS011;18502;43.574;1.276;2024-02-28T04:35:25;5.13;;;1.48;;
31978;SDS011;18502;43.574;1.276;2024-02-28T04:37:51;9.48;;;2.10;;
31978;SDS011;18502;43.574;1.276;2024-02-28T04:40:16;7.15;;;1.80;;
31978;SDS011;18502;43.574;1.276;2024-02-28T04:42:42;3.90;;;1.67;;
31978;SDS011;18502;43.574;1.276;2024-02-28T04:45:08;7.70;;;2.25;;
31978;SDS011;18502;43.574;1.276;2024-02-28T04:47:34;9.38;;;1.52;;
31978;SDS011;18502;43.574;1.276;2024-02-28T04:50:01;6.30;;;1.60;;
31978;SDS011;18502;43.574;1.276;2024-02-28T04:52:27;7.35;;;1.92;;
31978;SDS011;18502;43.574;1.276;2024-02-28T04:54:52;4.18;;;1.70;;
31978;SDS011;18502;43.574;1.276;2024-02-28T04:57:18;6.47;;;1.77;;
31978;SDS011;18502;43.574;1.276;2024-02-28T04:59:44;5.60;;;1.63;;
31978;SDS011;18502;43.574;1.276;2024-02-28T05:02:10;10.95;;;2.38;;
31978;SDS011;18502;43.574;1.276;2024-02-28T05:04:36;6.05;;;1.58;;
31978;SDS011;18502;43.574;1.276;2024-02-28T05:07:02;13.18;;;2.63;;
31978;SDS011;18502;43.574;1.276;2024-02-28T05:09:28;7.95;;;1.77;;
31978;SDS011;18502;43.574;1.276;2024-02-28T05:11:54;16.15;;;3.42;;
31978;SDS011;18502;43.574;1.276;2024-02-28T05:14:19;11.57;;;2.88;;
31978;SDS011;18502;43.574;1.276;2024-02-28T05:16:46;15.40;;;3.63;;
31978;SDS011;18502;43.574;1.276;2024-02-28T05:19:12;6.55;;;1.65;;
31978;SDS011;18502;43.574;1.276;2024-02-28T05:21:41;9.65;;;1.80;;
31978;SDS011;18502;43.574;1.276;2024-02-28T05:24:08;9.03;;;1.80;;
31978;SDS011;18502;43.574;1.276;2024-02-28T05:26:34;4.28;;;1.80;;
31978;SDS011;18502;43.574;1.276;2024-02-28T05:29:00;7.53;;;2.22;;
31978;SDS011;18502;43.574;1.276;2024-02-28T05:31:28;6.35;;;1.63;;
31978;SDS011;18502;43.574;1.276;2024-02-28T05:33:54;13.38;;;2.05;;
31978;SDS011;18502;43.574;1.276;2024-02-28T05:36:25;9.55;;;2.38;;
31978;SDS011;18502;43.574;1.276;2024-02-28T05:38:53;6.45;;;2.30;;
31978;SDS011;18502;43.574;1.276;2024-02-28T05:41:20;6.38;;;1.92;;
31978;SDS011;18502;43.574;1.276;2024-02-28T05:43:46;7.90;;;1.60;;
31978;SDS011;18502;43.574;1.276;2024-02-28T05:46:12;10.55;;;2.47;;
31978;SDS011;18502;43.574;1.276;2024-02-28T05:48:42;7.95;;;1.98;;
31978;SDS011;18502;43.574;1.276;2024-02-28T05:51:08;5.78;;;2.22;;
31978;SDS011;18502;43.574;1.276;2024-02-28T05:53:35;5.35;;;1.60;;
31978;SDS011;18502;43.574;1.276;2024-02-28T05:56:01;4.75;;;1.85;;
31978;SDS011;18502;43.574;1.276;2024-02-28T05:58:42;8.63;;;2.25;;
31978;SDS011;18502;43.574;1.276;2024-02-28T06:03:39;6.53;;;2.53;;
31978;SDS011;18502;43.574;1.276;2024-02-28T06:06:05;9.23;;;2.08;;
31978;SDS011;18502;43.574;1.276;2024-02-28T06:08:34;6.70;;;2.38;;
31978;SDS011;18502;43.574;1.276;2024-02-28T06:11:02;6.50;;;1.65;;
31978;SDS011;18502;43.574;1.276;2024-02-28T06:13:28;6.35;;;1.85;;
31978;SDS011;18502;43.574;1.276;2024-02-28T06:15:54;6.13;;;1.92;;
31978;SDS011;18502;43.574;1.276;2024-02-28T06:18:20;12.00;;;2.20;;
31978;SDS011;18502;43.574;1.276;2024-02-28T06:20:48;9.00;;;2.30;;
31978;SDS011;18502;43.574;1.276;2024-02-28T06:23:14;6.50;;;1.83;;
31978;SDS011;18502;43.574;1.276;2024-02-28T06:25:40;5.22;;;1.50;;
31978;SDS011;18502;43.574;1.276;2024-02-28T06:28:05;6.72;;;2.10;;
31978;SDS011;18502;43.574;1.276;2024-02-28T06:30:32;8.95;;;2.42;;
31978;SDS011;18502;43.574;1.276;2024-02-28T06:33:01;7.53;;;2.55;;
31978;SDS011;18502;43.574;1.276;2024-02-28T06:35:27;12.70;;;1.95;;
31978;SDS011;18502;43.574;1.276;2024-02-28T06:37:53;9.57;;;1.90;;
31978;SDS011;18502;43.574;1.276;2024-02-28T06:40:19;6.00;;;1.52;;
31978;SDS011;18502;43.574;1.276;2024-02-28T06:42:45;7.90;;;2.20;;
31978;SDS011;18502;43.574;1.276;2024-02-28T06:45:11;6.60;;;2.30;;
31978;SDS011;18502;43.574;1.276;2024-02-28T06:47:37;8.27;;;1.92;;
31978;SDS011;18502;43.574;1.276;2024-02-28T06:50:03;8.60;;;2.45;;
31978;SDS011;18502;43.574;1.276;2024-02-28T06:52:29;5.85;;;1.73;;
31978;SDS011;18502;43.574;1.276;2024-02-28T06:54:55;8.82;;;2.00;;
31978;SDS011;18502;43.574;1.276;2024-02-28T06:57:20;7.03;;;2.03;;
31978;SDS011;18502;43.574;1.276;2024-02-28T06:59:46;6.28;;;2.22;;
31978;SDS011;18502;43.574;1.276;2024-02-28T07:02:12;7.85;;;2.10;;
31978;SDS011;18502;43.574;1.276;2024-02-28T07:04:38;14.90;;;2.78;;
31978;SDS011;18502;43.574;1.276;2024-02-28T07:07:03;10.10;;;1.90;;
31978;SDS011;18502;43.574;1.276;2024-02-28T07:09:30;9.98;;;2.10;;
31978;SDS011;18502;43.574;1.276;2024-02-28T07:11:57;9.80;;;1.98;;
31978;SDS011;18502;43.574;1.276;2024-02-28T07:14:23;7.82;;;2.20;;
31978;SDS011;18502;43.574;1.276;2024-02-28T07:16:49;7.55;;;1.50;;
31978;SDS011;18502;43.574;1.276;2024-02-28T07:19:16;6.10;;;1.98;;
31978;SDS011;18502;43.574;1.276;2024-02-28T07:21:43;7.32;;;1.80;;
31978;SDS011;18502;43.574;1.276;2024-02-28T07:24:08;6.95;;;1.70;;
31978;SDS011;18502;43.574;1.276;2024-02-28T07:26:34;6.78;;;1.65;;
31978;SDS011;18502;43.574;1.276;2024-02-28T07:29:00;11.38;;;2.03;;
31978;SDS011;18502;43.574;1.276;2024-02-28T07:31:26;7.40;;;1.70;;
31978;SDS011;18502;43.574;1.276;2024-02-28T07:33:52;6.03;;;1.77;;
31978;SDS011;18502;43.574;1.276;2024-02-28T07:36:19;9.15;;;1.77;;
31978;SDS011;18502;43.574;1.276;2024-02-28T07:38:45;5.97;;;1.58;;
31978;SDS011;18502;43.574;1.276;2024-02-28T07:41:10;5.47;;;1.48;;
31978;SDS011;18502;43.574;1.276;2024-02-28T07:43:36;8.75;;;2.40;;
31978;SDS011;18502;43.574;1.276;2024-02-28T07:46:06;9.25;;;2.67;;
31978;SDS011;18502;43.574;1.276;2024-02-28T07:48:33;10.15;;;1.98;;
31978;SDS011;18502;43.574;1.276;2024-02-28T07:50:59;9.60;;;2.08;;
31978;SDS011;18502;43.574;1.276;2024-02-28T07:53:24;4.95;;;1.95;;
31978;SDS011;18502;43.574;1.276;2024-02-28T07:55:50;10.45;;;1.80;;
31978;SDS011;18502;43.574;1.276;2024-02-28T07:58:15;8.98;;;3.45;;
31978;SDS011;18502;43.574;1.276;2024-02-28T08:00:41;8.10;;;1.85;;
31978;SDS011;18502;43.574;1.276;2024-02-28T08:03:08;5.70;;;1.88;;
31978;SDS011;18502;43.574;1.276;2024-02-28T08:05:34;11.20;;;2.10;;
31978;SDS011;18502;43.574;1.276;2024-02-28T08:08:04;9.07;;;2.10;;
31978;SDS011;18502;43.574;1.276;2024-02-28T08:10:31;8.98;;;2.13;;
31978;SDS011;18502;43.574;1.276;2024-02-28T08:12:56;6.35;;;1.88;;
31978;SDS011;18502;43.574;1.276;2024-02-28T08:15:22;6.25;;;1.85;;
31978;SDS011;18502;43.574;1.276;2024-02-28T08:17:48;6.18;;;1.63;;
31978;SDS011;18502;43.574;1.276;2024-02-28T08:20:14;6.32;;;1.50;;
31978;SDS011;18502;43.574;1.276;2024-02-28T08:22:40;6.88;;;1.95;;
31978;SDS011;18502;43.574;1.276;2024-02-28T08:25:05;6.72;;;1.55;;
31978;SDS011;18502;43.574;1.276;2024-02-28T08:27:32;7.45;;;2.65;;
31978;SDS011;18502;43.574;1.276;2024-02-28T08:30:00;11.25;;;2.25;;
31978;SDS011;18502;43.574;1.276;2024-02-28T08:32:26;12.88;;;2.20;;
31978;SDS011;18502;43.574;1.276;2024-02-28T08:34:51;5.60;;;1.85;;
31978;SDS011;18502;43.574;1.276;2024-02-28T08:37:19;10.07;;;2.42;;
31978;SDS011;18502;43.574;1.276;2024-02-28T08:39:45;11.45;;;2.38;;
31978;SDS011;18502;43.574;1.276;2024-02-28T08:42:10;7.30;;;1.45;;
31978;SDS011;18502;43.574;1.276;2024-02-28T08:44:37;8.50;;;1.75;;
31978;SDS011;18502;43.574;1.276;2024-02-28T08:47:03;3.97;;;1.83;;
31978;SDS011;18502;43.574;1.276;2024-02-28T08:49:29;7.25;;;2.10;;
31978;SDS011;18502;43.574;1.276;2024-02-28T08:51:56;6.60;;;2.40;;
31978;SDS011;18502;43.574;1.276;2024-02-28T08:54:22;9.52;;;2.00;;
31978;SDS011;18502;43.574;1.276;2024-02-28T08:56:47;6.88;;;1.70;;
31978;SDS011;18502;43.574;1.276;2024-02-28T08:59:13;8.13;;;2.50;;
31978;SDS011;18502;43.574;1.276;2024-02-28T09:01:39;3.38;;;1.63;;
31978;SDS011;18502;43.574;1.276;2024-02-28T09:04:06;6.43;;;1.95;;
31978;SDS011;18502;43.574;1.276;2024-02-28T09:06:32;8.10;;;2.47;;
31978;SDS011;18502;43.574;1.276;2024-02-28T09:08:57;7.32;;;1.52;;
31978;SDS011;18502;43.574;1.276;2024-02-28T09:11:23;7.35;;;2.40;;
31978;SDS011;18502;43.574;1.276;2024-02-28T09:13:50;9.93;;;1.83;;
31978;SDS011;18502;43.574;1.276;2024-02-28T09:16:16;7.88;;;2.05;;
31978;SDS011;18502;43.574;1.276;2024-02-28T09:18:41;10.20;;;2.28;;
31978;SDS011;18502;43.574;1.276;2024-02-28T09:21:07;8.52;;;2.05;;
31978;SDS011;18502;43.574;1.276;2024-02-28T09:23:33;11.02;;;2.90;;
31978;SDS011;18502;43.574;1.276;2024-02-28T09:26:02;13.13;;;2.55;;
31978;SDS011;18502;43.574;1.276;2024-02-28T09:28:29;5.97;;;1.40;;
31978;SDS011;18502;43.574;1.276;2024-02-28T09:30:54;10.48;;;2.55;;
31978;SDS011;18502;43.574;1.276;2024-02-28T09:33:20;5.50;;;1.80;;
31978;SDS011;18502;43.574;1.276;2024-02-28T09:35:46;10.88;;;2.22;;
31978;SDS011;18502;43.574;1.276;2024-02-28T09:38:11;4.85;;;1.17;;
31978;SDS011;18502;43.574;1.276;2024-02-28T09:40:37;5.93;;;1.67;;
31978;SDS011;18502;43.574;1.276;2024-02-28T09:43:04;5.60;;;2.00;;
31978;SDS011;18502;43.574;1.276;2024-02-28T09:45:30;8.05;;;1.65;;
31978;SDS011;18502;43.574;1.276;2024-02-28T09:47:57;12.25;;;1.13;;
31978;SDS011;18502;43.574;1.276;2024-02-28T09:50:28;4.55;;;1.60;;
31978;SDS011;18502;43.574;1.276;2024-02-28T09:52:55;5.03;;;1.40;;
31978;SDS011;18502;43.574;1.276;2024-02-28T09:55:21;3.80;;;1.00;;
31978;SDS011;18502;43.574;1.276;2024-02-28T09:57:49;2.25;;;0.93;;
31978;SDS011;18502;43.574;1.276;2024-02-28T10:00:18;3.22;;;1.17;;
31978;SDS011;18502;43.574;1.276;2024-02-28T10:02:46;7.80;;;1.58;;
31978;SDS011;18502;43.574;1.276;2024-02-28T10:05:16;4.60;;;1.42;;
31978;SDS011;18502;43.574;1.276;2024-02-28T10:07:44;6.72;;;1.33;;
31978;SDS011;18502;43.574;1.276;2024-02-28T10:10:10;6.95;;;1.17;;
31978;SDS011;18502;43.574;1.276;2024-02-28T10:12:40;7.97;;;2.78;;
31978;SDS011;18502;43.574;1.276;2024-02-28T10:15:07;5.63;;;1.40;;
31978;SDS011;18502;43.574;1.276;2024-02-28T10:17:34;9.18;;;1.15;;
31978;SDS011;18502;43.574;1.276;2024-02-28T10:20:00;6.57;;;1.73;;
31978;SDS011;18502;43.574;1.276;2024-02-28T10:22:26;9.48;;;2.20;;
31978;SDS011;18502;43.574;1.276;2024-02-28T10:24:58;6.70;;;2.55;;
31978;SDS011;18502;43.574;1.276;2024-02-28T10:27:26;6.05;;;1.35;;
31978;SDS011;18502;43.574;1.276;2024-02-28T10:29:52;3.38;;;1.05;;
31978;SDS011;18502;43.574;1.276;2024-02-28T10:32:18;2.45;;;1.13;;
31978;SDS011;18502;43.574;1.276;2024-02-28T10:34:43;8.65;;;1.60;;
31978;SDS011;18502;43.574;1.276;2024-02-28T10:37:10;6.97;;;1.15;;
31978;SDS011;18502;43.574;1.276;2024-02-28T10:39:37;3.63;;;1.20;;
31978;SDS011;18502;43.574;1.276;2024-02-28T10:42:03;3.90;;;1.30;;
31978;SDS011;18502;43.574;1.276;2024-02-28T10:44:30;4.45;;;0.75;;
31978;SDS011;18502;43.574;1.276;2024-02-28T10:46:58;6.22;;;1.10;;
31978;SDS011;18502;43.574;1.276;2024-02-28T10:49:27;6.30;;;1.50;;
31978;SDS011;18502;43.574;1.276;2024-02-28T10:51:53;3.45;;;1.20;;
31978;SDS011;18502;43.574;1.276;2024-02-28T10:54:21;3.63;;;1.17;;
31978;SDS011;18502;43.574;1.276;2024-02-28T10:56:48;9.48;;;1.15;;
31978;SDS011;18502;43.574;1.276;2024-02-28T10:59:14;4.88;;;0.70;;
31978;SDS011;18502;43.574;1.276;2024-02-28T11:01:41;4.53;;;1.67;;
31978;SDS011;18502;43.574;1.276;2024-02-28T11:04:08;5.70;;;1.00;;
31978;SDS011;18502;43.574;1.276;2024-02-28T11:06:46;3.33;;;1.00;;
31978;SDS011;18502;43.574;1.276;2024-02-28T11:09:20;4.35;;;1.13;;
31978;SDS011;18502;43.574;1.276;2024-02-28T11:11:50;9.50;;;1.30;;
31978;SDS011;18502;43.574;1.276;2024-02-28T11:14:16;4.22;;;1.27;;
31978;SDS011;18502;43.574;1.276;2024-02-28T11:16:46;1.67;;;0.90;;
31978;SDS011;18502;43.574;1.276;2024-02-28T11:19:21;3.53;;;0.93;;
31978;SDS011;18502;43.574;1.276;2024-02-28T11:21:53;3.08;;;1.02;;
31978;SDS011;18502;43.574;1.276;2024-02-28T11:24:22;4.97;;;1.58;;
31978;SDS011;18502;43.574;1.276;2024-02-28T11:26:50;2.67;;;1.33;;
31978;SDS011;18502;43.574;1.276;2024-02-28T11:29:21;4.85;;;1.38;;
31978;SDS011;18502;43.574;1.276;2024-02-28T11:31:48;2.53;;;1.05;;
31978;SDS011;18502;43.574;1.276;2024-02-28T11:34:13;3.00;;;1.02;;
31978;SDS011;18502;43.574;1.276;2024-02-28T11:36:39;4.10;;;1.58;;
31978;SDS011;18502;43.574;1.276;2024-02-28T11:39:07;4.50;;;1.50;;
31978;SDS011;18502;43.574;1.276;2024-02-28T11:41:32;1.27;;;0.73;;
31978;SDS011;18502;43.574;1.276;2024-02-28T11:43:58;4.75;;;1.00;;
31978;SDS011;18502;43.574;1.276;2024-02-28T11:46:24;2.72;;;0.70;;
31978;SDS011;18502;43.574;1.276;2024-02-28T11:48:50;1.02;;;0.38;;
31978;SDS011;18502;43.574;1.276;2024-02-28T11:51:17;2.00;;;0.77;;
31978;SDS011;18502;43.574;1.276;2024-02-28T11:53:42;3.35;;;1.08;;
31978;SDS011;18502;43.574;1.276;2024-02-28T11:56:08;1.40;;;0.38;;
31978;SDS011;18502;43.574;1.276;2024-02-28T11:58:33;2.83;;;1.27;;
31978;SDS011;18502;43.574;1.276;2024-02-28T12:00:59;3.25;;;1.08;;
31978;SDS011;18502;43.574;1.276;2024-02-28T12:03:25;2.72;;;0.70;;
31978;SDS011;18502;43.574;1.276;2024-02-28T12:05:52;3.20;;;1.10;;
31978;SDS011;18502;43.574;1.276;2024-02-28T12:08:18;1.80;;;1.00;;
31978;SDS011;18502;43.574;1.276;2024-02-28T12:10:47;1.65;;;0.55;;
31978;SDS011;18502;43.574;1.276;2024-02-28T12:13:19;1.65;;;0.68;;
31978;SDS011;18502;43.574;1.276;2024-02-28T12:15:47;1.63;;;0.60;;
31978;SDS011;18502;43.574;1.276;2024-02-28T12:18:14;2.45;;;0.80;;
31978;SDS011;18502;43.574;1.276;2024-02-28T12:20:40;4.22;;;0.73;;
31978;SDS011;18502;43.574;1.276;2024-02-28T12:23:06;3.90;;;1.05;;
31978;SDS011;18502;43.574;1.276;2024-02-28T12:25:33;2.10;;;0.90;;
31978;SDS011;18502;43.574;1.276;2024-02-28T12:28:00;2.60;;;0.98;;
31978;SDS011;18502;43.574;1.276;2024-02-28T12:30:26;3.05;;;0.98;;
31978;SDS011;18502;43.574;1.276;2024-02-28T12:32:52;2.30;;;0.75;;
31978;SDS011;18502;43.574;1.276;2024-02-28T12:35:17;3.60;;;0.60;;
31978;SDS011;18502;43.574;1.276;2024-02-28T12:37:43;2.58;;;0.80;;
31978;SDS011;18502;43.574;1.276;2024-02-28T12:40:09;3.15;;;0.82;;
31978;SDS011;18502;43.574;1.276;2024-02-28T12:42:35;1.92;;;0.70;;
31978;SDS011;18502;43.574;1.276;2024-02-28T12:45:01;2.65;;;0.52;;
31978;SDS011;18502;43.574;1.276;2024-02-28T12:47:28;3.50;;;0.50;;
31978;SDS011;18502;43.574;1.276;2024-02-28T12:49:56;1.65;;;0.57;;
31978;SDS011;18502;43.574;1.276;2024-02-28T12:52:22;1.90;;;0.70;;
31978;SDS011;18502;43.574;1.276;2024-02-28T12:54:48;2.25;;;0.75;;
31978;SDS011;18502;43.574;1.276;2024-02-28T12:57:13;4.05;;;1.15;;
31978;SDS011;18502;43.574;1.276;2024-02-28T12:59:41;0.90;;;0.40;;
31978;SDS011;18502;43.574;1.276;2024-02-28T13:02:08;2.00;;;0.60;;
31978;SDS011;18502;43.574;1.276;2024-02-28T13:04:35;1.13;;;0.60;;
31978;SDS011;18502;43.574;1.276;2024-02-28T13:07:00;1.67;;;0.50;;
31978;SDS011;18502;43.574;1.276;2024-02-28T13:09:26;1.35;;;0.93;;
31978;SDS011;18502;43.574;1.276;2024-02-28T13:11:52;1.27;;;0.63;;
31978;SDS011;18502;43.574;1.276;2024-02-28T13:14:17;1.27;;;0.40;;
31978;SDS011;18502;43.574;1.276;2024-02-28T13:16:44;4.30;;;0.80;;
31978;SDS011;18502;43.574;1.276;2024-02-28T13:19:09;1.33;;;0.60;;
31978;SDS011;18502;43.574;1.276;2024-02-28T13:21:35;1.40;;;0.50;;
31978;SDS011;18502;43.574;1.276;2024-02-28T13:24:02;3.28;;;0.82;;
31978;SDS011;18502;43.574;1.276;2024-02-28T13:26:28;1.73;;;0.55;;
31978;SDS011;18502;43.574;1.276;2024-02-28T13:28:54;1.75;;;0.52;;
31978;SDS011;18502;43.574;1.276;2024-02-28T13:31:20;2.30;;;0.65;;
31978;SDS011;18502;43.574;1.276;2024-02-28T13:33:45;1.00;;;0.60;;
31978;SDS011;18502;43.574;1.276;2024-02-28T13:36:13;2.42;;;1.17;;
31978;SDS011;18502;43.574;1.276;2024-02-28T13:38:39;1.70;;;0.70;;
31978;SDS011;18502;43.574;1.276;2024-02-28T13:41:04;2.40;;;0.70;;
31978;SDS011;18502;43.574;1.276;2024-02-28T13:43:30;1.77;;;0.60;;
31978;SDS011;18502;43.574;1.276;2024-02-28T13:45:56;2.45;;;0.82;;
31978;SDS011;18502;43.574;1.276;2024-02-28T13:48:25;3.90;;;0.90;;
31978;SDS011;18502;43.574;1.276;2024-02-28T13:50:53;3.33;;;0.70;;
31978;SDS011;18502;43.574;1.276;2024-02-28T13:53:20;1.02;;;0.40;;
31978;SDS011;18502;43.574;1.276;2024-02-28T13:55:45;1.65;;;0.57;;
31978;SDS011;18502;43.574;1.276;2024-02-28T13:58:11;1.77;;;0.50;;
31978;SDS011;18502;43.574;1.276;2024-02-28T14:00:38;1.70;;;0.50;;
31978;SDS011;18502;43.574;1.276;2024-02-28T14:03:04;4.22;;;1.05;;
31978;SDS011;18502;43.574;1.276;2024-02-28T14:05:33;3.50;;;0.82;;
31978;SDS011;18502;43.574;1.276;2024-02-28T14:07:59;1.48;;;0.60;;
31978;SDS011;18502;43.574;1.276;2024-02-28T14:10:25;1.73;;;0.50;;
31978;SDS011;18502;43.574;1.276;2024-02-28T14:12:51;1.55;;;0.50;;
31978;SDS011;18502;43.574;1.276;2024-02-28T14:15:18;2.65;;;0.70;;
31978;SDS011;18502;43.574;1.276;2024-02-28T14:17:44;2.00;;;0.47;;
31978;SDS011;18502;43.574;1.276;2024-02-28T14:20:10;2.50;;;0.60;;
31978;SDS011;18502;43.574;1.276;2024-02-28T14:22:36;1.30;;;0.38;;
31978;SDS011;18502;43.574;1.276;2024-02-28T14:25:03;2.05;;;0.88;;
31978;SDS011;18502;43.574;1.276;2024-02-28T14:27:29;2.63;;;0.50;;
31978;SDS011;18502;43.574;1.276;2024-02-28T14:29:58;0.65;;;0.40;;
31978;SDS011;18502;43.574;1.276;2024-02-28T14:32:23;0.82;;;0.40;;
31978;SDS011;18502;43.574;1.276;2024-02-28T14:34:49;2.80;;;0.50;;
31978;SDS011;18502;43.574;1.276;2024-02-28T14:37:16;2.30;;;0.65;;
31978;SDS011;18502;43.574;1.276;2024-02-28T14:39:42;1.27;;;0.40;;
31978;SDS011;18502;43.574;1.276;2024-02-28T14:42:08;0.70;;;0.40;;